Погода Аксарайна неделю

Центральная Анатолия, Турция

19 - 25 июня
  • 19июня
    Сегодня
    +18°
    +34°
    Ясно и безоблачно
    ВремяПогодаТемператураВлажностьДавлениеВетер, м/сВероятность осадков
    00:00Ясно и безоблачно+25°C36 %682 мм5.8 м/с2 %
    03:00Ясно и безоблачно+22°C47 %681 мм5.5 м/с2 %
    06:00Ясно и безоблачно+19°C55 %681 мм5.7 м/с2 %
    09:00Ясно и безоблачно+25°C36 %682 мм1.5 м/с2 %
    12:00Ясно и безоблачно+31°C19 %682 мм2.4 м/с2 %
    15:00Ясно и безоблачно+34°C16 %681 мм2.4 м/с2 %
    18:00Практически безоблачно+34°C17 %681 мм3.0 м/с2 %
    21:00Ясно и безоблачно+28°C25 %681 мм1.8 м/с2 %
  • 20июня
    Четверг
    +19°
    +35°
    Ясно и безоблачно
    ВремяПогодаТемператураВлажностьДавлениеВетер, м/сВероятность осадков
    00:00Ясно и безоблачно+24°C36 %681 мм5.8 м/с2 %
    03:00Ясно и безоблачно+21°C46 %680 мм5.6 м/с2 %
    06:00Ясно и безоблачно+19°C53 %680 мм5.8 м/с2 %
    09:00Ясно и безоблачно+26°C33 %681 мм1.3 м/с2 %
    12:00Ясно и безоблачно+31°C17 %681 мм2.4 м/с2 %
    15:00Ясно и безоблачно+34°C15 %681 мм2.2 м/с2 %
    18:00Ясно и безоблачно+34°C15 %680 мм2.8 м/с2 %
    21:00Ясно и безоблачно+28°C21 %680 мм1.5 м/с2 %
  • 21июня
    Пятница
    +16°
    +33°
    Ясно и безоблачно
    ВремяПогодаТемператураВлажностьДавлениеВетер, м/сВероятность осадков
    00:00Ясно и безоблачно+25°C28 %680 мм6.3 м/с2 %
    03:00Ясно и безоблачно+22°C48 %680 мм6.6 м/с2 %
    06:00Ясно и безоблачно+20°C45 %680 мм6.1 м/с2 %
    09:00Ясно и безоблачно+24°C35 %681 мм2.3 м/с2 %
    12:00Ясно и безоблачно+30°C22 %681 мм3.1 м/с2 %
    15:00Ясно и безоблачно+32°C16 %680 мм3.1 м/с2 %
    18:00Ясно и безоблачно+32°C19 %679 мм3.4 м/с2 %
    21:00Ясно и безоблачно+27°C29 %679 мм2.7 м/с2 %
  • 22июня
    Суббота
    +15°
    +32°
    Ясно и безоблачно
    ВремяПогодаТемператураВлажностьДавлениеВетер, м/сВероятность осадков
    00:00Ясно и безоблачно+23°C43 %679 мм7.5 м/с2 %
    03:00Ясно и безоблачно+19°C57 %678 мм7.3 м/с2 %
    06:00Ясно и безоблачно+16°C69 %677 мм6.7 м/с2 %
    09:00Ясно и безоблачно+21°C46 %679 мм1.7 м/с2 %
    12:00Ясно и безоблачно+28°C26 %679 мм2.4 м/с2 %
    15:00Ясно и безоблачно+32°C17 %678 мм2.7 м/с2 %
    18:00Ясно и безоблачно+32°C18 %677 мм3.4 м/с6 %
    21:00Ясно и безоблачно+26°C22 %677 мм2.4 м/с2 %
Мы используем cookies
Соглашаюсь